Colfax, WA

7:02 PM PDT on September 19, 2014 (GMT -0700)
Barclay Ridge | Change Station
CLOSE
Current Station
Personal Weather Station
Location: Pullman, WA
Elevation: 2644 ft
Nearby Weather Stations

Elev 2644 ft 46.73 °N, 117.21 °W | Updated 14 seconds ago

Partly Cloudy
Partly Cloudy
70.2 °F
Feels Like 77 °F
N
0.0
Wind Variable Wind from WSW

Today
High -- | Low -- °F
--% Chance of Precip.
Yesterday
High -- | Low -- °F
Precip. -- in
6:32 AM 6:52 PM
Waning Crescent, 15% visible
Pressure 30.06 in
Visibility 10.0 miles
Clouds Clear
Heat Index 77 °F
Dew Point 46 °F
Humidity 42%
Rainfall 0.00 in
Snow Depth 0 in , 1 in , 0 in
UV 0 out of 12
Pollen 7.10 out of 12
Air Quality Not available.
Flu Activity Not available.
METAR KPUW 200053Z AUTO 00000KT 10SM CLR 23/07 A3008 RMK AO2 SLP177 T02280067

More Conditions Fewer Conditions

Pressure 30.06 in
Visibility 10.0 miles
Clouds Clear
Heat Index 77 °F
Dew Point 46 °F
Humidity 42%
Rainfall 0.00 in
Snow Depth 0 in , 1 in , 0 in
UV 0 out of 12
Pollen 7.10 out of 12
Air Quality Not available.
Flu Activity Not available.
METAR KPUW 200053Z AUTO 00000KT 10SM CLR 23/07 A3008 RMK AO2 SLP177 T02280067

More Conditions Fewer Conditions

10-Day Weather Forecast

Almanac

Astronomy

Sep. 19, 2014 Rise Set
Actual Time 6:32 AM PDT 6:52 PM PDT
Civil Twilight 6:02 AM PDT 7:23 PM PDT
Nautical Twilight 5:26 AM PDT 7:59 PM PDT
Astronomical Twilight 4:48 AM PDT 8:36 PM PDT
Moon 2:09 AM PDT (9/19) 4:35 PM PDT (9/19)
Length of Visible Light 13h 21m
Length of Day
12h 20m
Tomorrow will be 3m 18s shorter.
Waning Crescent, 15% of the Moon is Illuminated
Today
Waning Crescent
Sep 24
New
Oct 1
First Quarter
Oct 8
Full
Oct 15
Last Quarter

Today's Extremes

State Highs State Lows

Community

WunderPhotos

Upload Photos

1,754,761 photos uploaded!

WunderBlogs® & News

Nearby

Snow Depth

Station Depth Elevation
Stampede Pass 0 in 3860 ft
Quartz Peak 1 in 4700 ft
Trough 0 in 5300 ft
Harts Pass 0 in 6500 ft
Pigtail Peak 0 in 5900 ft

Earthquake Activity

City Distance Mag. Time & Date
No recent earthquake activity has been reported nearby.
Minimum magnitude displayed is 2.5.

Coastal Water Temperatures

Place Temperature
No Stations Reporting

Nearby Weather Stations